createdAt,value
2016-06-12T00:00:18.651Z,24.24
2016-06-12T00:01:18.639Z,24.23
2016-06-12T00:02:18.611Z,24.31
2016-06-12T00:03:18.598Z,24.26
2016-06-12T00:04:18.585Z,24.35
2016-06-12T00:05:18.557Z,24.29
2016-06-12T00:06:18.701Z,24.27
2016-06-12T00:07:18.517Z,24.24
2016-06-12T00:08:18.505Z,24.32
2016-06-12T00:09:18.517Z,24.37
2016-06-12T00:10:18.528Z,24.32
2016-06-12T00:11:18.553Z,24.31
2016-06-12T00:12:18.563Z,24.34
2016-06-12T00:13:18.588Z,24.27
2016-06-12T00:14:18.598Z,24.27
2016-06-12T00:15:18.582Z,24.2
2016-06-12T00:16:18.585Z,24.23
2016-06-12T00:17:18.585Z,24.26
2016-06-12T00:18:18.571Z,24.29
2016-06-12T00:19:18.551Z,24.23
2016-06-12T00:20:18.840Z,24.24
2016-06-12T00:21:18.520Z,24.27
2016-06-12T00:22:18.528Z,24.22
2016-06-12T00:23:18.504Z,24.22
2016-06-12T00:24:18.495Z,24.29
2016-06-12T00:25:18.469Z,24.23
2016-06-12T00:26:18.458Z,24.31
2016-06-12T00:27:18.432Z,24.27
2016-06-12T00:28:18.421Z,24.2
2016-06-12T00:29:18.394Z,24.26
2016-06-12T00:30:18.382Z,24.31
2016-06-12T00:31:18.370Z,24.22
2016-06-12T00:32:18.358Z,24.29
2016-06-12T00:33:18.330Z,24.27
2016-06-12T00:34:18.302Z,24.27
2016-06-12T00:35:18.743Z,24.26
2016-06-12T00:36:18.262Z,24.23
2016-06-12T00:37:18.250Z,24.24
2016-06-12T00:38:18.222Z,24.26
2016-06-12T00:39:18.209Z,24.19
2016-06-12T00:40:18.197Z,24.24
2016-06-12T00:41:18.168Z,24.26
2016-06-12T00:42:18.157Z,24.23
2016-06-12T00:43:18.143Z,24.24
2016-06-12T00:44:18.116Z,24.24
2016-06-12T00:45:18.103Z,24.22
2016-06-12T00:46:18.075Z,24.24
2016-06-12T00:47:18.062Z,24.19
2016-06-12T00:48:18.034Z,24.19
2016-06-12T00:49:18.021Z,24.19
2016-06-12T00:50:17.822Z,24.19
2016-06-12T00:51:17.980Z,24.22
2016-06-12T00:52:17.813Z,24.23
2016-06-12T00:53:17.940Z,24.16
2016-06-12T00:54:17.928Z,24.22
2016-06-12T00:55:17.915Z,24.22
2016-06-12T00:56:17.886Z,24.23
2016-06-12T00:57:17.718Z,24.19
2016-06-12T00:58:17.846Z,24.22
2016-06-12T00:59:17.834Z,24.2
2016-06-12T01:00:17.805Z,24.26
2016-06-12T01:01:17.793Z,24.13
2016-06-12T01:02:17.764Z,24.22
2016-06-12T01:03:17.752Z,24.16
2016-06-12T01:04:17.803Z,24.2
2016-06-12T01:05:17.570Z,24.16
2016-06-12T01:06:17.698Z,24.16
2016-06-12T01:07:17.686Z,24.22
2016-06-12T01:08:17.658Z,24.1
2016-06-12T01:09:17.629Z,24.12
2016-06-12T01:10:17.618Z,24.14
2016-06-12T01:11:17.605Z,24.17
2016-06-12T01:12:17.591Z,24.13
2016-06-12T01:13:17.564Z,24.14
2016-06-12T01:14:17.551Z,24.13
2016-06-12T01:15:17.523Z,24.16
2016-06-12T01:16:17.512Z,24.1
2016-06-12T01:17:17.498Z,24.13
2016-06-12T01:18:17.471Z,24.12
2016-06-12T01:19:17.457Z,24.16
2016-06-12T01:20:17.569Z,24.12
2016-06-12T01:21:17.416Z,24.17
2016-06-12T01:22:17.388Z,24.07
2016-06-12T01:23:17.376Z,24.12
2016-06-12T01:24:17.348Z,24.1
2016-06-12T01:25:17.335Z,24.17
2016-06-12T01:26:17.307Z,24.13
2016-06-12T01:27:17.295Z,24.22
2016-06-12T01:28:17.282Z,24.13
2016-06-12T01:29:17.254Z,24.04
2016-06-12T01:30:17.241Z,24.04
2016-06-12T01:31:17.229Z,24.05
2016-06-12T01:32:17.216Z,24.13
2016-06-12T01:33:17.188Z,24.08
2016-06-12T01:34:17.160Z,24.08
2016-06-12T01:35:17.273Z,24.07
2016-06-12T01:36:17.119Z,24.1
2016-06-12T01:37:17.107Z,24.12
2016-06-12T01:38:17.094Z,24.1
2016-06-12T01:39:16.753Z,24.13
2016-06-12T01:40:16.897Z,24.04
2016-06-12T01:41:17.026Z,24.07
2016-06-12T01:42:17.012Z,24.07
2016-06-12T01:43:17.000Z,24.16
2016-06-12T01:44:16.972Z,24.14
2016-06-12T01:45:16.960Z,24.04
2016-06-12T01:46:16.932Z,24.08
2016-06-12T01:47:16.918Z,24.12
2016-06-12T01:48:16.906Z,24.1
2016-06-12T01:49:16.909Z,24.07
2016-06-12T01:50:16.866Z,24.05
2016-06-12T01:51:16.837Z,24.1
2016-06-12T01:52:16.809Z,24.02
2016-06-12T01:53:16.796Z,24.04
2016-06-12T01:54:16.784Z,24.01
2016-06-12T01:55:16.757Z,24.1
2016-06-12T01:56:16.587Z,24.07
2016-06-12T01:57:16.730Z,24.05
2016-06-12T01:58:16.703Z,24.04
2016-06-12T01:59:16.689Z,24.04
2016-06-12T02:00:16.678Z,24.07
2016-06-12T02:01:16.650Z,24.07
2016-06-12T02:02:16.637Z,24.13
2016-06-12T02:03:16.624Z,24.07
2016-06-12T02:04:16.596Z,23.95
2016-06-12T02:05:17.068Z,23.95
2016-06-12T02:06:16.555Z,24.01
2016-06-12T02:07:16.527Z,24.05
2016-06-12T02:08:16.514Z,24.07
2016-06-12T02:09:16.503Z,24.08
2016-06-12T02:10:16.490Z,24.07
2016-06-12T02:11:16.462Z,24.07
2016-06-12T02:12:16.434Z,24.05
2016-06-12T02:13:16.421Z,24.08
2016-06-12T02:14:16.393Z,24.08
2016-06-12T02:15:16.380Z,24.07
2016-06-12T02:16:16.367Z,24.04
2016-06-12T02:17:16.339Z,24.04
2016-06-12T02:18:16.311Z,24.08
2016-06-12T02:19:16.298Z,24.07
2016-06-12T02:20:16.395Z,24.08
2016-06-12T02:21:16.273Z,24.08
2016-06-12T02:22:16.277Z,24.05
2016-06-12T02:23:16.217Z,23.92
2016-06-12T02:24:16.266Z,24.07
2016-06-12T02:25:16.191Z,24.1
2016-06-12T02:26:16.195Z,24.1
2016-06-12T02:27:16.136Z,24.12
2016-06-12T02:28:16.153Z,24.1
2016-06-12T02:29:15.954Z,24.04
2016-06-12T02:30:16.098Z,24.05
2016-06-12T02:31:15.913Z,24.08
2016-06-12T02:32:16.057Z,23.95
2016-06-12T02:33:16.030Z,24
2016-06-12T02:34:16.001Z,23.98
2016-06-12T02:35:16.019Z,24.08
2016-06-12T02:36:16.678Z,24.07
2016-06-12T02:37:15.806Z,24
2016-06-12T02:38:15.935Z,24.04
2016-06-12T02:39:15.767Z,24.05
2016-06-12T02:40:15.895Z,24.05
2016-06-12T02:41:15.881Z,24.02
2016-06-12T02:42:15.869Z,24.1
2016-06-12T02:43:15.841Z,24.07
2016-06-12T02:44:15.828Z,24.05
2016-06-12T02:45:15.800Z,24.05
2016-06-12T02:46:15.788Z,24.12
2016-06-12T02:47:15.759Z,24.02
2016-06-12T02:48:15.747Z,24.07
2016-06-12T02:49:15.578Z,24.05
2016-06-12T02:50:16.346Z,24.05
2016-06-12T02:51:15.990Z,23.95
2016-06-12T02:52:15.666Z,24.13
2016-06-12T02:53:15.652Z,24.07
2016-06-12T02:54:15.624Z,23.95
2016-06-12T02:55:15.612Z,24.07
2016-06-12T02:56:15.584Z,24.08
2016-06-12T02:57:15.586Z,24.01
2016-06-12T02:58:15.559Z,24
2016-06-12T02:59:15.546Z,23.95
2016-06-12T03:00:15.518Z,24.05
2016-06-12T03:01:15.505Z,23.95
2016-06-12T03:02:15.477Z,24.01
2016-06-12T03:03:15.465Z,24
2016-06-12T03:04:15.436Z,24.04
2016-06-12T03:05:15.956Z,23.94
2016-06-12T03:06:15.255Z,24
2016-06-12T03:07:15.227Z,23.97
2016-06-12T03:08:15.371Z,24.02
2016-06-12T03:09:15.343Z,23.98
2016-06-12T03:10:15.314Z,23.98
2016-06-12T03:11:15.318Z,24
2016-06-12T03:12:15.289Z,24
2016-06-12T03:13:15.292Z,24
2016-06-12T03:14:15.249Z,24.01
2016-06-12T03:15:15.220Z,24.08
2016-06-12T03:16:15.209Z,24.01
2016-06-12T03:17:15.179Z,23.97
2016-06-12T03:18:15.167Z,23.95
2016-06-12T03:19:15.139Z,23.92
2016-06-12T03:20:15.704Z,23.95
2016-06-12T03:21:15.114Z,23.97
2016-06-12T03:22:15.101Z,23.95
2016-06-12T03:23:15.072Z,23.89
2016-06-12T03:24:15.045Z,23.98
2016-06-12T03:25:15.033Z,23.92
2016-06-12T03:26:14.848Z,23.97
2016-06-12T03:27:14.992Z,23.98
2016-06-12T03:28:14.995Z,23.98
2016-06-12T03:29:14.951Z,23.98
2016-06-12T03:30:14.939Z,23.97
2016-06-12T03:31:14.926Z,23.97
2016-06-12T03:32:14.897Z,23.98
2016-06-12T03:33:14.870Z,24.07
2016-06-12T03:34:14.857Z,24
2016-06-12T03:35:15.407Z,23.94
2016-06-12T03:36:15.269Z,23.92
2016-06-12T03:37:14.804Z,23.92
2016-06-12T03:38:14.776Z,23.92
2016-06-12T03:39:14.763Z,23.9
2016-06-12T03:40:14.579Z,23.97
2016-06-12T03:41:14.722Z,23.97
2016-06-12T03:42:14.711Z,23.98
2016-06-12T03:43:14.681Z,23.98
2016-06-12T03:44:14.669Z,24
2016-06-12T03:45:14.656Z,23.92
2016-06-12T03:46:14.612Z,23.89
2016-06-12T03:47:14.601Z,23.92
2016-06-12T03:48:14.588Z,23.97
2016-06-12T03:49:14.559Z,23.9
2016-06-12T03:50:14.547Z,23.94
2016-06-12T03:51:14.769Z,23.92
2016-06-12T03:52:14.506Z,24
2016-06-12T03:53:14.494Z,23.98
2016-06-12T03:54:14.465Z,23.94
2016-06-12T03:55:14.454Z,23.9
2016-06-12T03:56:14.424Z,23.97
2016-06-12T03:57:14.412Z,23.97
2016-06-12T03:58:14.399Z,23.95
2016-06-12T03:59:14.371Z,23.97
2016-06-12T04:00:14.344Z,23.9
2016-06-12T04:01:14.347Z,23.87
2016-06-12T04:02:14.333Z,23.98
2016-06-12T04:03:14.133Z,23.98
2016-06-12T04:04:14.137Z,23.95
2016-06-12T04:05:14.249Z,23.92
2016-06-12T04:06:14.237Z,24
2016-06-12T04:07:14.240Z,23.9
2016-06-12T04:08:14.196Z,23.9
2016-06-12T04:09:14.183Z,24.02
2016-06-12T04:10:14.171Z,23.94
2016-06-12T04:11:14.142Z,23.9
2016-06-12T04:12:14.130Z,23.95
2016-06-12T04:13:13.961Z,23.92
2016-06-12T04:14:14.105Z,23.92
2016-06-12T04:15:14.061Z,23.92
2016-06-12T04:16:14.049Z,24.01
2016-06-12T04:17:14.021Z,23.95
2016-06-12T04:18:14.008Z,23.94
2016-06-12T04:19:13.979Z,23.9
2016-06-12T04:20:13.967Z,24
2016-06-12T04:21:14.767Z,23.97
2016-06-12T04:22:13.942Z,23.89
2016-06-12T04:23:13.898Z,23.92
2016-06-12T04:24:13.885Z,24
2016-06-12T04:25:13.874Z,23.95
2016-06-12T04:26:13.860Z,23.97
2016-06-12T04:27:13.832Z,23.97
2016-06-12T04:28:13.819Z,23.89
2016-06-12T04:29:13.792Z,23.97
2016-06-12T04:30:13.779Z,23.98
2016-06-12T04:31:13.751Z,23.95
2016-06-12T04:32:13.738Z,23.97
2016-06-12T04:33:13.742Z,23.97
2016-06-12T04:34:13.698Z,23.97
2016-06-12T04:35:13.685Z,23.95
2016-06-12T04:36:13.360Z,23.97
2016-06-12T04:37:13.644Z,23.97
2016-06-12T04:38:13.617Z,23.94
2016-06-12T04:39:13.603Z,23.95
2016-06-12T04:40:13.575Z,23.9
2016-06-12T04:41:13.563Z,23.98
2016-06-12T04:42:13.535Z,23.97
2016-06-12T04:43:13.523Z,24.07
2016-06-12T04:44:13.510Z,23.98
2016-06-12T04:45:13.482Z,23.97
2016-06-12T04:46:13.453Z,24
2016-06-12T04:47:13.456Z,23.97
2016-06-12T04:48:13.428Z,23.97
2016-06-12T04:49:13.400Z,23.95
2016-06-12T04:50:13.387Z,24.01
2016-06-12T04:51:13.578Z,23.9
2016-06-12T04:52:13.347Z,23.9
2016-06-12T04:53:13.334Z,24.02
2016-06-12T04:54:13.321Z,23.97
2016-06-12T04:55:13.294Z,23.95
2016-06-12T04:56:13.266Z,23.97
2016-06-12T04:57:13.252Z,24.01
2016-06-12T04:58:13.240Z,23.95
2016-06-12T04:59:13.212Z,23.97
2016-06-12T05:00:13.043Z,24
2016-06-12T05:01:13.171Z,24.07
2016-06-12T05:02:13.159Z,24.02
2016-06-12T05:03:13.130Z,24.01
2016-06-12T05:04:13.118Z,23.95
2016-06-12T05:05:13.105Z,23.97
2016-06-12T05:06:14.531Z,24.04
2016-06-12T05:07:13.065Z,24.07
2016-06-12T05:08:13.036Z,24
2016-06-12T05:09:13.039Z,24.02
2016-06-12T05:10:12.996Z,23.94
2016-06-12T05:11:12.984Z,24.01
2016-06-12T05:12:12.970Z,24.07
2016-06-12T05:13:12.943Z,23.94
2016-06-12T05:14:12.930Z,24.07
2016-06-12T05:15:12.917Z,23.94
2016-06-12T05:16:12.889Z,24.02
2016-06-12T05:17:12.861Z,24.02
2016-06-12T05:18:12.848Z,24.08
2016-06-12T05:19:12.821Z,24.08
2016-06-12T05:20:12.807Z,24.07
2016-06-12T05:21:13.217Z,23.94
2016-06-12T05:22:12.768Z,24.02
2016-06-12T05:23:12.755Z,24
2016-06-12T05:24:12.741Z,23.95
2016-06-12T05:25:12.730Z,23.97
2016-06-12T05:26:12.700Z,24.02
2016-06-12T05:27:12.673Z,24
2016-06-12T05:28:12.661Z,23.97
2016-06-12T05:29:12.648Z,23.97
2016-06-12T05:30:12.620Z,24.08
2016-06-12T05:31:12.608Z,23.94
2016-06-12T05:32:12.579Z,23.94
2016-06-12T05:33:12.567Z,23.94
2016-06-12T05:34:12.538Z,24.07
2016-06-12T05:35:12.526Z,24.05
2016-06-12T05:36:12.372Z,24.07
2016-06-12T05:37:12.345Z,24.1
2016-06-12T05:38:12.457Z,24.07
2016-06-12T05:39:12.445Z,24.04
2016-06-12T05:40:12.432Z,24.13
2016-06-12T05:41:12.404Z,24
2016-06-12T05:42:12.375Z,24.02
2016-06-12T05:43:12.378Z,24.07
2016-06-12T05:44:12.350Z,24.07
2016-06-12T05:45:12.338Z,24
2016-06-12T05:46:12.309Z,24.04
2016-06-12T05:47:12.297Z,24.02
2016-06-12T05:48:12.268Z,24.02
2016-06-12T05:49:12.256Z,23.97
2016-06-12T05:50:12.228Z,23.94
2016-06-12T05:51:12.216Z,23.92
2016-06-12T05:52:12.203Z,23.95
2016-06-12T05:53:12.175Z,23.95
2016-06-12T05:54:12.162Z,23.97
2016-06-12T05:55:12.134Z,23.98
2016-06-12T05:56:12.122Z,23.9
2016-06-12T05:57:12.093Z,23.95
2016-06-12T05:58:11.925Z,23.94
2016-06-12T05:59:12.068Z,23.97
2016-06-12T06:00:12.040Z,23.98
2016-06-12T06:01:12.028Z,23.97
2016-06-12T06:02:11.999Z,23.98
2016-06-12T06:03:11.972Z,24
2016-06-12T06:04:11.958Z,23.95
2016-06-12T06:05:11.993Z,23.98
2016-06-12T06:06:11.917Z,23.95
2016-06-12T06:07:11.906Z,23.97
2016-06-12T06:08:11.893Z,23.97
2016-06-12T06:09:11.865Z,23.98
2016-06-12T06:10:11.852Z,23.98
2016-06-12T06:11:11.839Z,24
2016-06-12T06:12:11.811Z,24.04
2016-06-12T06:13:11.783Z,23.97
2016-06-12T06:14:11.770Z,23.97
2016-06-12T06:15:11.602Z,24.01
2016-06-12T06:16:11.729Z,24
2016-06-12T06:17:11.717Z,23.95
2016-06-12T06:18:11.705Z,24
2016-06-12T06:19:11.521Z,23.95
2016-06-12T06:20:11.664Z,23.98
2016-06-12T06:21:11.494Z,23.92
2016-06-12T06:22:11.623Z,23.97
2016-06-12T06:23:11.595Z,24
2016-06-12T06:24:11.583Z,23.95
2016-06-12T06:25:11.554Z,23.95
2016-06-12T06:26:11.543Z,24.02
2016-06-12T06:27:11.529Z,24.01
2016-06-12T06:28:11.516Z,24
2016-06-12T06:29:11.474Z,24.05
2016-06-12T06:30:11.461Z,23.98
2016-06-12T06:31:11.448Z,23.94
2016-06-12T06:32:11.419Z,24
2016-06-12T06:33:11.407Z,23.95
2016-06-12T06:34:11.379Z,23.98
2016-06-12T06:35:11.366Z,23.97
2016-06-12T06:36:11.323Z,23.92
2016-06-12T06:37:11.638Z,23.97
2016-06-12T06:38:11.329Z,23.92
2016-06-12T06:39:11.285Z,24.02
2016-06-12T06:40:11.258Z,23.95
2016-06-12T06:41:11.261Z,24.07
2016-06-12T06:42:11.231Z,24
2016-06-12T06:43:11.204Z,24.08
2016-06-12T06:44:11.190Z,24.04
2016-06-12T06:45:11.179Z,24.04
2016-06-12T06:46:11.151Z,24.07
2016-06-12T06:47:11.138Z,24.05
2016-06-12T06:48:11.125Z,24.04
2016-06-12T06:49:11.096Z,24.05
2016-06-12T06:50:11.069Z,24.01
2016-06-12T06:51:11.619Z,24.12
2016-06-12T06:52:11.762Z,24.05
2016-06-12T06:53:11.031Z,24.1
2016-06-12T06:54:11.003Z,24.07
2016-06-12T06:55:10.974Z,24.05
2016-06-12T06:56:10.962Z,24.05
2016-06-12T06:57:10.778Z,24.13
2016-06-12T06:58:10.922Z,23.94
2016-06-12T06:59:10.908Z,24.07
2016-06-12T07:00:10.897Z,24
2016-06-12T07:01:10.868Z,24.08
2016-06-12T07:02:10.856Z,24.08
2016-06-12T07:03:10.828Z,24.12
2016-06-12T07:04:10.815Z,24.07
2016-06-12T07:05:10.787Z,24.07
2016-06-12T07:06:11.524Z,24.1
2016-06-12T07:07:10.762Z,24.05
2016-06-12T07:08:10.734Z,24.04
2016-06-12T07:09:10.706Z,24.02
2016-06-12T07:10:10.692Z,24.02
2016-06-12T07:11:10.665Z,24.08
2016-06-12T07:12:10.652Z,24.07
2016-06-12T07:13:10.640Z,24.07
2016-06-12T07:14:10.611Z,24.1
2016-06-12T07:15:10.599Z,24.13
2016-06-12T07:16:10.571Z,24.07
2016-06-12T07:17:10.558Z,24.13
2016-06-12T07:18:10.545Z,24.12
2016-06-12T07:19:10.533Z,24.12
2016-06-12T07:20:10.505Z,24.12
2016-06-12T07:21:10.492Z,24.14
2016-06-12T07:22:10.901Z,24.14
2016-06-12T07:23:10.436Z,24.1
2016-06-12T07:24:10.424Z,24.14
2016-06-12T07:25:10.410Z,24.2
2016-06-12T07:26:10.383Z,24.16
2016-06-12T07:27:10.385Z,24.16
2016-06-12T07:28:10.341Z,24.17
2016-06-12T07:29:10.345Z,24.26
2016-06-12T07:30:10.317Z,24.24
2016-06-12T07:31:10.289Z,24.2
2016-06-12T07:32:10.276Z,24.27
2016-06-12T07:33:10.263Z,24.23
2016-06-12T07:34:10.235Z,24.29
2016-06-12T07:35:10.222Z,24.29
2016-06-12T07:36:10.210Z,24.29
2016-06-12T07:37:10.963Z,24.27
2016-06-12T07:38:10.186Z,24.27
2016-06-12T07:39:10.142Z,24.32
2016-06-12T07:40:10.129Z,24.29
2016-06-12T07:41:10.101Z,24.31
2016-06-12T07:42:10.088Z,24.27
2016-06-12T07:43:09.935Z,24.32
2016-06-12T07:44:10.047Z,24.23
2016-06-12T07:45:10.035Z,24.31
2016-06-12T07:46:10.022Z,24.32
2016-06-12T07:47:09.994Z,24.34
2016-06-12T07:48:09.966Z,24.31
2016-06-12T07:49:09.953Z,24.37
2016-06-12T07:50:09.940Z,24.42
2016-06-12T07:51:09.928Z,24.31
2016-06-12T07:52:10.337Z,24.37
2016-06-12T07:53:09.872Z,24.29
2016-06-12T07:54:09.860Z,24.26
2016-06-12T07:55:09.878Z,24.29
2016-06-12T07:56:09.819Z,24.29
2016-06-12T07:57:09.806Z,24.27
2016-06-12T07:58:09.778Z,24.34
2016-06-12T07:59:09.765Z,24.32
2016-06-12T08:00:09.737Z,24.35
2016-06-12T08:01:09.724Z,24.32
2016-06-12T08:02:09.697Z,24.37
2016-06-12T08:03:09.699Z,24.32
2016-06-12T08:04:09.672Z,24.29
2016-06-12T08:05:09.658Z,24.37
2016-06-12T08:06:09.630Z,24.42
2016-06-12T08:07:09.634Z,24.37
2016-06-12T08:08:09.589Z,24.44
2016-06-12T08:09:09.593Z,24.41
2016-06-12T08:10:09.549Z,24.38
2016-06-12T08:11:09.552Z,24.41
2016-06-12T08:12:09.524Z,24.42
2016-06-12T08:13:09.496Z,24.41
2016-06-12T08:14:09.483Z,24.42
2016-06-12T08:15:09.455Z,24.42
2016-06-12T08:16:09.286Z,24.45
2016-06-12T08:17:09.414Z,24.42
2016-06-12T08:18:09.417Z,24.52
2016-06-12T08:19:09.390Z,24.47
2016-06-12T08:20:09.376Z,24.47
2016-06-12T08:21:09.349Z,24.44
2016-06-12T08:22:09.336Z,24.41
2016-06-12T08:23:09.308Z,24.49
2016-06-12T08:24:09.311Z,24.56
2016-06-12T08:25:09.111Z,24.44
2016-06-12T08:26:09.255Z,24.45
2016-06-12T08:27:09.086Z,24.47
2016-06-12T08:28:09.214Z,24.53
2016-06-12T08:29:09.202Z,24.52
2016-06-12T08:30:09.204Z,24.44
2016-06-12T08:31:09.161Z,24.53
2016-06-12T08:32:09.132Z,24.54
2016-06-12T08:33:09.119Z,24.5
2016-06-12T08:34:09.108Z,24.53
2016-06-12T08:35:09.094Z,24.54
2016-06-12T08:36:09.067Z,24.53
2016-06-12T08:37:09.929Z,24.54
2016-06-12T08:38:09.026Z,24.56
2016-06-12T08:39:09.013Z,24.59
2016-06-12T08:40:09.001Z,24.57
2016-06-12T08:41:08.972Z,24.47
2016-06-12T08:42:08.961Z,24.53
2016-06-12T08:43:08.932Z,24.56
2016-06-12T08:44:08.919Z,24.59
2016-06-12T08:45:08.923Z,24.53
2016-06-12T08:46:08.878Z,24.56
2016-06-12T08:47:08.865Z,24.61
2016-06-12T08:48:08.854Z,24.61
2016-06-12T08:49:08.825Z,24.59
2016-06-12T08:50:08.828Z,24.57
2016-06-12T08:51:08.785Z,24.54
2016-06-12T08:52:08.788Z,24.53
2016-06-12T08:53:08.759Z,24.54
2016-06-12T08:54:08.763Z,24.6
2016-06-12T08:55:08.719Z,24.6
2016-06-12T08:56:08.690Z,24.6
2016-06-12T08:57:08.679Z,24.53
2016-06-12T08:58:08.650Z,24.63
2016-06-12T08:59:08.653Z,24.56
2016-06-12T09:00:08.624Z,24.59
2016-06-12T09:01:08.612Z,24.64
2016-06-12T09:02:08.584Z,24.59
2016-06-12T09:03:08.572Z,24.68
2016-06-12T09:04:08.543Z,24.6
2016-06-12T09:05:08.546Z,24.6
2016-06-12T09:06:08.534Z,24.69
2016-06-12T09:07:08.537Z,24.63
2016-06-12T09:08:08.478Z,24.63
2016-06-12T09:09:08.465Z,24.73
2016-06-12T09:10:08.437Z,24.64
2016-06-12T09:11:08.440Z,24.6
2016-06-12T09:12:08.395Z,24.6
2016-06-12T09:13:08.367Z,24.64
2016-06-12T09:14:08.357Z,24.64
2016-06-12T09:15:08.384Z,24.57
2016-06-12T09:16:08.412Z,24.63
2016-06-12T09:17:08.425Z,24.56
2016-06-12T09:18:08.453Z,24.63
2016-06-12T09:19:08.465Z,24.63
2016-06-12T09:20:08.468Z,24.63
2016-06-12T09:21:08.360Z,24.63
2016-06-12T09:22:08.456Z,24.64
2016-06-12T09:23:08.630Z,24.68
2016-06-12T09:24:08.475Z,24.63
2016-06-12T09:25:08.436Z,24.67
2016-06-12T09:26:08.429Z,24.64
2016-06-12T09:27:08.405Z,24.67
2016-06-12T09:28:08.399Z,24.69
2016-06-12T09:29:08.375Z,24.59
2016-06-12T09:30:08.380Z,24.69
2016-06-12T09:31:08.353Z,24.68
2016-06-12T09:32:08.328Z,24.73
2016-06-12T09:33:08.316Z,24.68
2016-06-12T09:34:08.306Z,24.73
2016-06-12T09:35:08.294Z,24.75
2016-06-12T09:36:08.267Z,24.69
2016-06-12T09:37:08.318Z,24.77
2016-06-12T09:38:09.508Z,24.75
2016-06-12T09:39:08.216Z,24.71
2016-06-12T09:40:08.032Z,24.8
2016-06-12T09:41:08.019Z,24.79
2016-06-12T09:42:08.164Z,24.77
2016-06-12T09:43:07.995Z,24.75
2016-06-12T09:44:08.108Z,24.83
2016-06-12T09:45:07.939Z,24.68
2016-06-12T09:46:08.067Z,24.8
2016-06-12T09:47:08.070Z,24.83
2016-06-12T09:48:08.042Z,24.8
2016-06-12T09:49:08.030Z,24.71
2016-06-12T09:50:08.017Z,24.85
2016-06-12T09:51:07.990Z,24.83
2016-06-12T09:52:07.976Z,24.85
2016-06-12T09:53:07.948Z,24.88
2016-06-12T09:54:07.936Z,24.87
2016-06-12T09:55:07.908Z,24.82
2016-06-12T09:56:07.894Z,24.82
2016-06-12T09:57:07.882Z,24.87
2016-06-12T09:58:07.870Z,24.88
2016-06-12T09:59:07.842Z,24.92
2016-06-12T10:00:07.673Z,24.85
2016-06-12T10:01:07.801Z,24.97
2016-06-12T10:02:07.773Z,24.92
2016-06-12T10:03:07.760Z,24.88
2016-06-12T10:04:07.747Z,24.91
2016-06-12T10:05:07.719Z,24.94
2016-06-12T10:06:07.708Z,24.88
2016-06-12T10:07:07.694Z,24.91
2016-06-12T10:08:07.681Z,24.98
2016-06-12T10:09:07.763Z,24.97
2016-06-12T10:10:07.641Z,24.98
2016-06-12T10:11:07.612Z,24.94
2016-06-12T10:12:07.601Z,24.98
2016-06-12T10:13:07.588Z,25
2016-06-12T10:14:07.560Z,25
2016-06-12T10:15:07.531Z,25.02
2016-06-12T10:16:07.534Z,25.06
2016-06-12T10:17:07.522Z,24.94
2016-06-12T10:18:07.509Z,25.06
2016-06-12T10:19:07.482Z,25.01
2016-06-12T10:20:07.453Z,25.1
2016-06-12T10:21:07.424Z,25.05
2016-06-12T10:22:07.413Z,25.07
2016-06-12T10:23:07.931Z,25.07
2016-06-12T10:24:07.372Z,25.06
2016-06-12T10:25:07.359Z,25.09
2016-06-12T10:26:07.347Z,25.15
2016-06-12T10:27:07.318Z,25.16
2016-06-12T10:28:07.306Z,25.17
2016-06-12T10:29:07.293Z,25.1
2016-06-12T10:30:07.109Z,25.13
2016-06-12T10:31:07.253Z,25.17
2016-06-12T10:32:07.225Z,25.24
2016-06-12T10:33:07.228Z,25.17
2016-06-12T10:34:07.027Z,25.17
2016-06-12T10:35:07.172Z,25.17
2016-06-12T10:36:07.159Z,25.22
2016-06-12T10:37:07.146Z,25.2
2016-06-12T10:38:07.274Z,25.17
2016-06-12T10:39:07.121Z,25.17
2016-06-12T10:40:07.093Z,25.2
2016-06-12T10:41:07.065Z,25.16
2016-06-12T10:42:06.896Z,25.22
2016-06-12T10:43:07.024Z,25.22
2016-06-12T10:44:07.011Z,25.24
2016-06-12T10:45:07.014Z,25.31
2016-06-12T10:46:06.986Z,25.3
2016-06-12T10:47:06.958Z,25.17
2016-06-12T10:48:06.962Z,25.25
2016-06-12T10:49:06.918Z,25.24
2016-06-12T10:50:06.904Z,25.25
2016-06-12T10:51:06.877Z,25.3
2016-06-12T10:52:07.786Z,25.3
2016-06-12T10:53:06.835Z,25.16
2016-06-12T10:54:06.839Z,25.31
2016-06-12T10:55:06.842Z,25.32
2016-06-12T10:56:06.798Z,25.28
2016-06-12T10:57:06.817Z,25.27
2016-06-12T10:58:06.805Z,25.27
2016-06-12T10:59:06.745Z,25.22
2016-06-12T11:00:06.732Z,25.25
2016-06-12T11:01:06.704Z,25.28
2016-06-12T11:02:06.676Z,25.22
2016-06-12T11:03:06.679Z,25.28
2016-06-12T11:04:06.650Z,25.32
2016-06-12T11:05:06.623Z,25.24
2016-06-12T11:06:06.610Z,25.17
2016-06-12T11:07:06.597Z,25.15
2016-06-12T11:08:07.257Z,25.17
2016-06-12T11:09:06.557Z,25.12
2016-06-12T11:10:06.544Z,25.13
2016-06-12T11:11:06.516Z,25.15
2016-06-12T11:12:06.519Z,25.12
2016-06-12T11:13:06.538Z,25.01
2016-06-12T11:14:06.463Z,25.07
2016-06-12T11:15:06.451Z,25.02
2016-06-12T11:16:06.423Z,25.07
2016-06-12T11:17:06.254Z,25.01
2016-06-12T11:18:06.396Z,24.97
2016-06-12T11:19:06.385Z,24.87
2016-06-12T11:20:06.403Z,24.88
2016-06-12T11:21:06.359Z,24.91
2016-06-12T11:22:06.347Z,24.91
2016-06-12T11:23:06.897Z,24.9
2016-06-12T11:24:06.290Z,24.83
2016-06-12T11:25:06.371Z,24.75
2016-06-12T11:26:06.265Z,24.76
2016-06-12T11:27:06.221Z,24.73
2016-06-12T11:28:06.224Z,24.76
2016-06-12T11:29:06.181Z,24.71
2016-06-12T11:30:06.168Z,24.75
2016-06-12T11:31:06.155Z,24.69
2016-06-12T11:32:06.128Z,24.6
2016-06-12T11:33:05.959Z,24.63
2016-06-12T11:34:06.103Z,24.57
2016-06-12T11:35:06.184Z,24.63
2016-06-12T11:36:06.062Z,24.56
2016-06-12T11:37:06.034Z,24.6
2016-06-12T11:38:06.444Z,24.56
2016-06-12T11:39:05.994Z,24.56
2016-06-12T11:40:05.981Z,24.45
2016-06-12T11:41:05.952Z,24.47
2016-06-12T11:42:05.939Z,24.45
2016-06-12T11:43:05.926Z,24.44
2016-06-12T11:44:05.945Z,24.47
2016-06-12T11:45:05.887Z,24.37
2016-06-12T11:46:05.890Z,24.39
2016-06-12T11:47:05.846Z,24.44
2016-06-12T11:48:05.833Z,24.45
2016-06-12T11:49:05.805Z,24.41
2016-06-12T11:50:05.839Z,24.37
2016-06-12T11:51:05.842Z,24.35
2016-06-12T11:52:05.767Z,24.39
2016-06-12T11:53:05.912Z,24.38
2016-06-12T11:54:05.710Z,24.34
2016-06-12T11:55:05.699Z,24.34
2016-06-12T11:56:05.671Z,24.38
2016-06-12T11:57:05.657Z,24.39
2016-06-12T11:58:05.644Z,24.44
2016-06-12T11:59:05.617Z,24.41
2016-06-12T12:00:05.604Z,24.42
2016-06-12T12:01:05.592Z,24.47
2016-06-12T12:02:05.548Z,24.44
2016-06-12T12:03:05.535Z,24.41
2016-06-12T12:04:05.523Z,24.53
2016-06-12T12:05:05.494Z,24.49
2016-06-12T12:06:05.479Z,24.45
2016-06-12T12:07:05.310Z,24.57
2016-06-12T12:08:05.816Z,24.53
2016-06-12T12:09:05.425Z,24.57
2016-06-12T12:10:05.397Z,24.61
2016-06-12T12:11:05.401Z,24.56
2016-06-12T12:12:05.356Z,24.64
2016-06-12T12:13:05.359Z,24.56
2016-06-12T12:14:05.332Z,24.63
2016-06-12T12:15:05.304Z,24.63
2016-06-12T12:16:05.291Z,24.69
2016-06-12T12:17:05.279Z,24.67
2016-06-12T12:18:05.266Z,24.64
2016-06-12T12:19:05.253Z,24.73
2016-06-12T12:20:05.523Z,24.69
2016-06-12T12:21:05.213Z,24.75
2016-06-12T12:22:05.201Z,24.73
2016-06-12T12:23:05.360Z,24.73
2016-06-12T12:24:05.144Z,24.69
2016-06-12T12:25:05.131Z,24.76
2016-06-12T12:26:05.119Z,24.71
2016-06-12T12:27:05.091Z,24.76
2016-06-12T12:28:05.077Z,24.79
2016-06-12T12:29:05.050Z,24.73
2016-06-12T12:30:05.037Z,24.77
2016-06-12T12:31:05.025Z,24.76
2016-06-12T12:32:04.997Z,24.75
2016-06-12T12:33:04.984Z,24.71
2016-06-12T12:34:04.956Z,24.75
2016-06-12T12:35:04.959Z,24.77
2016-06-12T12:36:04.993Z,24.71
2016-06-12T12:37:04.902Z,24.71
2016-06-12T12:38:04.733Z,24.75
2016-06-12T12:39:04.877Z,24.73
2016-06-12T12:40:04.849Z,24.77
2016-06-12T12:41:04.837Z,24.64
2016-06-12T12:42:04.808Z,24.67
2016-06-12T12:43:04.796Z,24.63
2016-06-12T12:44:04.783Z,24.63
2016-06-12T12:45:04.756Z,24.63
2016-06-12T12:46:04.742Z,24.57
2016-06-12T12:47:04.730Z,24.53
2016-06-12T12:48:04.748Z,24.59
2016-06-12T12:49:04.876Z,24.52
2016-06-12T12:50:04.662Z,24.52
2016-06-12T12:51:04.649Z,24.42
2016-06-12T12:52:04.465Z,24.47
2016-06-12T12:53:05.546Z,24.42
2016-06-12T12:54:04.596Z,24.45
2016-06-12T12:55:04.567Z,24.49
2016-06-12T12:56:04.555Z,24.47
2016-06-12T12:57:04.542Z,24.39